createdAt,value
2019-05-15T00:02:30.771Z,4.97
2019-05-15T00:05:08.984Z,4.27
2019-05-15T00:07:45.580Z,3.90
2019-05-15T00:10:21.446Z,3.80
2019-05-15T00:12:58.613Z,4.43
2019-05-15T00:15:34.762Z,4.10
2019-05-15T00:18:12.347Z,2.57
2019-05-15T00:20:49.810Z,3.80
2019-05-15T00:23:26.116Z,4.10
2019-05-15T00:26:01.978Z,4.93
2019-05-15T00:28:38.982Z,4.43
2019-05-15T00:31:18.411Z,3.47
2019-05-15T00:33:53.520Z,3.83
2019-05-15T00:36:30.596Z,3.97
2019-05-15T00:39:08.518Z,2.17
2019-05-15T00:41:53.234Z,3.20
2019-05-15T00:44:23.016Z,2.87
2019-05-15T00:46:59.981Z,3.60
2019-05-15T00:49:38.113Z,4.80
2019-05-15T00:52:14.732Z,3.53
2019-05-15T00:54:51.223Z,2.80
2019-05-15T00:57:28.376Z,2.40
2019-05-15T01:00:05.588Z,3.43
2019-05-15T01:02:42.074Z,2.43
2019-05-15T01:05:18.741Z,4.03
2019-05-15T01:07:55.241Z,3.70
2019-05-15T01:10:31.358Z,3.33
2019-05-15T01:13:08.655Z,4.13
2019-05-15T01:15:45.000Z,5.37
2019-05-15T01:18:20.881Z,3.10
2019-05-15T01:20:58.677Z,3.17
2019-05-15T01:23:35.450Z,2.50
2019-05-15T01:26:11.583Z,2.53
2019-05-15T01:28:49.513Z,2.53
2019-05-15T01:31:28.369Z,3.93
2019-05-15T01:34:04.018Z,4.10
2019-05-15T01:36:40.407Z,2.87
2019-05-15T01:39:18.509Z,3.47
2019-05-15T01:41:54.204Z,2.33
2019-05-15T01:44:30.560Z,2.50
2019-05-15T01:47:08.495Z,2.93
2019-05-15T01:49:45.117Z,2.67
2019-05-15T01:52:21.521Z,4.17
2019-05-15T01:54:58.318Z,2.67
2019-05-15T01:57:34.578Z,2.17
2019-05-15T02:00:12.649Z,2.93
2019-05-15T02:02:49.226Z,3.53
2019-05-15T02:05:25.468Z,2.40
2019-05-15T02:08:01.660Z,2.10
2019-05-15T02:10:39.239Z,2.53
2019-05-15T02:13:18.548Z,1.93
2019-05-15T02:15:54.640Z,2.77
2019-05-15T02:18:31.984Z,1.80
2019-05-15T02:21:10.397Z,2.00
2019-05-15T02:23:48.179Z,2.43
2019-05-15T02:26:25.078Z,1.97
2019-05-15T02:29:00.950Z,1.57
2019-05-15T02:31:39.158Z,1.70
2019-05-15T02:34:14.723Z,1.53
2019-05-15T02:36:51.724Z,3.15
2019-05-15T02:39:28.854Z,2.30
2019-05-15T02:42:09.544Z,2.23
2019-05-15T02:44:44.309Z,2.27
2019-05-15T02:47:20.377Z,2.97
2019-05-15T02:49:59.129Z,1.77
2019-05-15T02:52:35.201Z,2.33
2019-05-15T02:55:12.232Z,1.97
2019-05-15T02:57:49.499Z,2.40
2019-05-15T03:00:37.828Z,2.07
2019-05-15T03:03:04.792Z,1.87
2019-05-15T03:05:41.768Z,2.73
2019-05-15T03:08:19.704Z,1.73
2019-05-15T03:10:59.232Z,2.53
2019-05-15T03:13:34.940Z,1.37
2019-05-15T03:16:11.090Z,2.23
2019-05-15T03:18:50.581Z,2.23
2019-05-15T03:21:25.398Z,1.10
2019-05-15T03:24:02.389Z,1.30
2019-05-15T03:26:39.476Z,1.50
2019-05-15T03:29:16.406Z,1.57
2019-05-15T03:32:09.367Z,1.80
2019-05-15T03:34:37.918Z,2.00
2019-05-15T03:37:12.105Z,2.00
2019-05-15T03:39:51.526Z,1.60
2019-05-15T03:42:25.758Z,1.10
2019-05-15T03:45:01.817Z,2.40
2019-05-15T03:47:40.101Z,3.27
2019-05-15T03:50:19.262Z,1.33
2019-05-15T03:52:54.589Z,2.10
2019-05-15T03:55:31.749Z,1.87
2019-05-15T03:58:09.865Z,2.17
2019-05-15T04:00:49.622Z,1.67
2019-05-15T04:03:24.761Z,1.87
2019-05-15T04:06:01.661Z,1.97
2019-05-15T04:08:39.143Z,2.40
2019-05-15T04:11:20.039Z,1.83
2019-05-15T04:13:55.350Z,2.30
2019-05-15T04:16:31.960Z,1.23
2019-05-15T04:19:09.692Z,1.33
2019-05-15T04:21:49.373Z,1.87
2019-05-15T04:24:29.875Z,1.70
2019-05-15T04:27:09.653Z,1.03
2019-05-15T04:29:43.698Z,1.33
2019-05-15T04:32:20.196Z,1.97
2019-05-15T04:34:59.345Z,1.70
2019-05-15T04:37:35.456Z,2.23
2019-05-15T04:40:12.321Z,1.17
2019-05-15T04:42:49.828Z,0.93
2019-05-15T04:45:31.676Z,3.57
2019-05-15T04:48:04.842Z,2.03
2019-05-15T04:50:41.366Z,2.57
2019-05-15T04:53:19.261Z,1.07
2019-05-15T04:55:55.270Z,1.73
2019-05-15T04:58:32.273Z,2.87
2019-05-15T05:01:09.511Z,5.40
2019-05-15T05:03:49.317Z,8.97
2019-05-15T05:06:24.070Z,8.37
2019-05-15T05:08:59.880Z,6.67
2019-05-15T05:11:38.312Z,4.87
2019-05-15T05:14:14.509Z,9.67
2019-05-15T05:16:50.974Z,6.93
2019-05-15T05:19:28.586Z,23.03
2019-05-15T05:22:07.691Z,18.90
2019-05-15T05:24:44.120Z,18.43
2019-05-15T05:27:20.681Z,17.50
2019-05-15T05:29:58.688Z,18.97
2019-05-15T05:32:35.471Z,14.77
2019-05-15T05:35:12.611Z,13.27
2019-05-15T05:37:49.386Z,11.53
2019-05-15T05:40:25.716Z,9.93
2019-05-15T05:43:01.817Z,10.33
2019-05-15T05:45:38.561Z,12.90
2019-05-15T05:48:15.433Z,12.40
2019-05-15T05:50:52.862Z,11.73
2019-05-15T05:53:29.621Z,9.37
2019-05-15T05:56:05.786Z,10.63
2019-05-15T05:58:42.506Z,12.77
2019-05-15T06:01:19.011Z,4.80
2019-05-15T06:03:54.865Z,3.90
2019-05-15T06:06:31.606Z,5.70
2019-05-15T06:09:09.297Z,7.37
2019-05-15T06:11:45.989Z,7.17
2019-05-15T06:14:22.381Z,5.63
2019-05-15T06:16:58.949Z,5.77
2019-05-15T06:19:35.385Z,10.13
2019-05-15T06:22:11.305Z,6.13
2019-05-15T06:24:48.597Z,6.33
2019-05-15T06:27:27.839Z,7.73
2019-05-15T06:30:04.095Z,16.77
2019-05-15T06:32:40.558Z,17.03
2019-05-15T06:35:19.479Z,12.27
2019-05-15T06:37:59.143Z,5.80
2019-05-15T06:40:34.857Z,12.80
2019-05-15T06:43:11.694Z,6.47
2019-05-15T06:45:48.733Z,8.83
2019-05-15T06:48:26.200Z,5.73
2019-05-15T06:51:02.369Z,9.97
2019-05-15T06:53:38.905Z,8.43
2019-05-15T06:56:14.693Z,23.20
2019-05-15T06:58:51.152Z,12.57
2019-05-15T07:01:29.289Z,14.13
2019-05-15T07:04:08.264Z,8.77
2019-05-15T07:06:43.847Z,15.53
2019-05-15T07:09:20.159Z,9.33
2019-05-15T07:11:58.884Z,13.17
2019-05-15T07:14:35.175Z,16.60
2019-05-15T07:17:12.367Z,16.63
2019-05-15T07:19:48.712Z,25.27
2019-05-15T07:22:25.305Z,11.50
2019-05-15T07:25:01.546Z,17.00
2019-05-15T07:27:39.032Z,11.65
2019-05-15T07:30:18.715Z,10.63
2019-05-15T07:32:54.909Z,11.93
2019-05-15T07:35:31.239Z,13.15
2019-05-15T07:38:08.078Z,14.27
2019-05-15T07:40:44.645Z,14.13
2019-05-15T07:43:21.090Z,10.08
2019-05-15T07:45:59.062Z,13.93
2019-05-15T07:48:38.401Z,10.60
2019-05-15T07:51:14.449Z,11.17
2019-05-15T07:53:50.922Z,9.57
2019-05-15T07:56:28.933Z,11.20
2019-05-15T07:59:05.419Z,8.87
2019-05-15T08:01:42.549Z,8.23
2019-05-15T08:04:26.158Z,12.68
2019-05-15T08:06:59.090Z,7.58
2019-05-15T08:09:34.569Z,10.55
2019-05-15T08:12:10.726Z,6.22
2019-05-15T08:14:50.689Z,9.33
2019-05-15T08:17:25.019Z,6.17
2019-05-15T08:20:00.699Z,5.65
2019-05-15T08:22:38.352Z,3.92
2019-05-15T08:25:30.531Z,6.07
2019-05-15T08:27:54.692Z,4.93
2019-05-15T08:30:31.589Z,5.28
2019-05-15T08:33:08.547Z,6.75
2019-05-15T08:35:48.010Z,6.45
2019-05-15T08:38:23.888Z,5.85
2019-05-15T08:41:00.142Z,4.45
2019-05-15T08:43:38.234Z,5.05
2019-05-15T08:46:14.693Z,3.45
2019-05-15T08:48:51.507Z,4.60
2019-05-15T08:51:28.422Z,4.60
2019-05-15T08:54:08.335Z,8.60
2019-05-15T08:56:44.238Z,4.20
2019-05-15T08:59:20.247Z,4.65
2019-05-15T09:01:58.160Z,5.83
2019-05-15T09:04:35.258Z,2.85
2019-05-15T09:07:12.061Z,5.62
2019-05-15T09:09:48.761Z,3.40
2019-05-15T09:12:25.366Z,5.25
2019-05-15T09:15:01.647Z,2.62
2019-05-15T09:17:39.934Z,4.47
2019-05-15T09:20:16.038Z,4.37
2019-05-15T09:22:52.673Z,2.83
2019-05-15T09:25:29.264Z,5.30
2019-05-15T09:28:05.108Z,2.67
2019-05-15T09:30:41.951Z,3.05
2019-05-15T09:33:20.069Z,3.25
2019-05-15T09:35:58.361Z,4.35
2019-05-15T09:38:35.449Z,1.72
2019-05-15T09:41:12.238Z,2.62
2019-05-15T09:43:48.699Z,2.15
2019-05-15T09:46:24.626Z,3.72
2019-05-15T09:49:01.150Z,2.37
2019-05-15T09:51:38.530Z,2.00
2019-05-15T09:54:15.068Z,2.83
2019-05-15T09:56:51.751Z,2.87
2019-05-15T09:59:28.610Z,3.83
2019-05-15T10:02:04.966Z,3.33
2019-05-15T10:04:41.473Z,2.25
2019-05-15T10:07:19.312Z,2.33
2019-05-15T10:09:56.192Z,2.12
2019-05-15T10:12:35.070Z,2.40
2019-05-15T10:15:11.855Z,3.25
2019-05-15T10:17:50.852Z,1.75
2019-05-15T10:20:26.073Z,4.78
2019-05-15T10:23:02.227Z,2.75
2019-05-15T10:25:38.960Z,2.52
2019-05-15T10:28:18.652Z,3.15
2019-05-15T10:30:54.550Z,1.55
2019-05-15T10:33:30.501Z,2.05
2019-05-15T10:36:08.464Z,2.35
2019-05-15T10:38:46.362Z,7.50
2019-05-15T10:41:23.189Z,2.02
2019-05-15T10:44:00.653Z,2.40
2019-05-15T10:46:38.286Z,1.45
2019-05-15T10:49:15.078Z,3.70
2019-05-15T10:51:51.016Z,3.08
2019-05-15T10:54:28.905Z,1.90
2019-05-15T10:57:08.538Z,1.85
2019-05-15T10:59:43.897Z,2.72
2019-05-15T11:02:20.835Z,2.15
2019-05-15T11:04:57.869Z,1.87
2019-05-15T11:07:34.488Z,2.58
2019-05-15T11:10:10.763Z,1.77
2019-05-15T11:12:50.145Z,1.85
2019-05-15T11:15:28.956Z,2.45
2019-05-15T11:18:05.033Z,1.95
2019-05-15T11:20:42.029Z,1.75
2019-05-15T11:23:20.056Z,1.50
2019-05-15T11:25:58.084Z,2.33
2019-05-15T11:28:38.674Z,2.98
2019-05-15T11:31:13.168Z,1.30
2019-05-15T11:33:49.416Z,2.50
2019-05-15T11:36:28.814Z,2.02
2019-05-15T11:39:08.433Z,2.60
2019-05-15T11:41:45.622Z,2.05
2019-05-15T11:44:22.001Z,2.70
2019-05-15T11:46:59.742Z,2.37
2019-05-15T11:49:38.259Z,1.70
2019-05-15T11:52:14.491Z,1.62
2019-05-15T11:54:51.467Z,2.27
2019-05-15T11:57:39.437Z,2.25
2019-05-15T12:00:14.585Z,1.27
2019-05-15T12:02:45.394Z,2.05
2019-05-15T12:05:28.754Z,2.20
2019-05-15T12:08:05.487Z,1.20
2019-05-15T12:10:41.414Z,3.83
2019-05-15T12:13:19.062Z,2.33
2019-05-15T12:15:58.738Z,2.75
2019-05-15T12:18:34.529Z,2.42
2019-05-15T12:21:10.732Z,2.60
2019-05-15T12:23:48.743Z,2.20
2019-05-15T12:26:24.399Z,2.62
2019-05-15T12:29:00.838Z,2.80
2019-05-15T12:31:38.805Z,2.30
2019-05-15T12:34:14.599Z,2.25
2019-05-15T12:36:57.457Z,1.55
2019-05-15T12:39:30.597Z,1.17
2019-05-15T13:00:35.657Z,0.95
2019-05-15T13:03:13.456Z,2.33
2019-05-15T13:05:49.707Z,2.22
2019-05-15T13:08:28.807Z,3.65
2019-05-15T13:11:09.445Z,3.58
2019-05-15T13:13:48.420Z,1.90
2019-05-15T13:16:25.076Z,2.90
2019-05-15T13:19:02.283Z,3.00
2019-05-15T13:21:38.703Z,2.67
2019-05-15T13:24:15.051Z,1.95
2019-05-15T13:26:50.800Z,2.00
2019-05-15T13:29:28.969Z,2.20
2019-05-15T13:32:07.908Z,4.10
2019-05-15T13:34:43.493Z,4.03
2019-05-15T13:37:27.086Z,4.28
2019-05-15T13:39:58.874Z,1.33
2019-05-15T13:42:36.072Z,4.90
2019-05-15T13:45:15.309Z,6.22
2019-05-15T13:47:52.378Z,4.87
2019-05-15T13:50:28.987Z,2.65
2019-05-15T13:53:10.012Z,2.50
2019-05-15T13:55:43.322Z,4.17
2019-05-15T13:58:19.155Z,5.65
2019-05-15T14:00:54.936Z,5.70
2019-05-15T14:03:32.721Z,9.03
2019-05-15T14:06:09.344Z,12.30
2019-05-15T14:08:49.433Z,11.78
2019-05-15T14:11:30.329Z,9.43
2019-05-15T14:14:07.007Z,13.05
2019-05-15T14:16:43.831Z,12.23
2019-05-15T14:19:20.463Z,12.55
2019-05-15T14:22:00.447Z,10.05
2019-05-15T14:24:38.259Z,15.80
2019-05-15T14:27:14.869Z,14.28
2019-05-15T14:29:51.306Z,17.55
2019-05-15T14:32:37.722Z,14.05
2019-05-15T14:35:09.051Z,25.62
2019-05-15T14:38:00.029Z,15.18
2019-05-15T14:40:23.886Z,15.40
2019-05-15T14:43:00.397Z,7.15
2019-05-15T14:45:38.801Z,16.42
2019-05-15T14:48:16.061Z,11.85
2019-05-15T14:50:52.862Z,13.83
2019-05-15T14:53:29.729Z,11.17
2019-05-15T14:56:07.974Z,12.80
2019-05-15T14:58:43.381Z,10.32
2019-05-15T15:01:19.165Z,6.78
2019-05-15T15:03:55.181Z,4.22
2019-05-15T15:06:31.824Z,7.40
2019-05-15T15:09:08.697Z,14.78
2019-05-15T15:11:45.192Z,5.87
2019-05-15T15:14:21.527Z,4.63
2019-05-15T15:16:57.296Z,5.37
2019-05-15T15:19:33.682Z,7.95
2019-05-15T15:22:10.402Z,7.90
2019-05-15T15:24:48.258Z,14.80
2019-05-15T15:27:24.704Z,8.40
2019-05-15T15:30:00.410Z,5.70
2019-05-15T15:32:37.744Z,5.53
2019-05-15T15:35:14.704Z,3.67
2019-05-15T15:37:51.018Z,3.45
2019-05-15T15:40:28.238Z,7.55
2019-05-15T15:43:04.759Z,2.80
2019-05-15T15:45:41.194Z,5.85
2019-05-15T15:48:19.269Z,6.70
2019-05-15T15:50:58.640Z,4.45
2019-05-15T15:53:34.811Z,7.05
2019-05-15T15:56:12.315Z,4.13
2019-05-15T15:58:49.131Z,4.25
2019-05-15T16:01:28.501Z,5.00
2019-05-15T16:04:03.855Z,3.87
2019-05-15T16:06:40.633Z,4.75
2019-05-15T16:09:18.782Z,4.30
2019-05-15T16:11:55.622Z,6.45
2019-05-15T16:14:31.522Z,3.83
2019-05-15T16:17:08.650Z,2.83
2019-05-15T16:19:45.533Z,7.83
2019-05-15T16:22:21.401Z,6.43
2019-05-15T16:25:01.863Z,5.20
2019-05-15T16:27:38.217Z,4.75
2019-05-15T16:30:14.912Z,5.90
2019-05-15T16:32:50.995Z,9.07
2019-05-15T16:35:28.945Z,4.90
2019-05-15T16:38:05.828Z,8.20
2019-05-15T16:40:42.402Z,11.68
2019-05-15T16:43:19.262Z,12.95
2019-05-15T16:45:58.432Z,5.40
2019-05-15T16:48:33.745Z,15.40
2019-05-15T16:51:10.332Z,9.20
2019-05-15T16:53:48.778Z,5.83
2019-05-15T16:56:28.183Z,5.67
2019-05-15T16:59:03.126Z,5.53
2019-05-15T17:01:39.496Z,6.33
2019-05-15T17:04:18.254Z,3.47
2019-05-15T17:06:54.784Z,6.75
2019-05-15T17:09:31.777Z,4.25
2019-05-15T17:12:09.865Z,4.28
2019-05-15T17:14:48.462Z,3.55
2019-05-15T17:17:23.859Z,4.23
2019-05-15T17:20:02.089Z,3.30
2019-05-15T17:22:39.541Z,3.45
2019-05-15T17:25:18.170Z,3.85
2019-05-15T17:27:53.982Z,3.37
2019-05-15T17:30:30.297Z,3.52
2019-05-15T17:33:07.351Z,5.03
2019-05-15T17:35:43.856Z,4.47
2019-05-15T17:38:19.970Z,2.50
2019-05-15T17:40:57.724Z,3.90
2019-05-15T17:43:33.603Z,3.67
2019-05-15T17:46:09.621Z,7.10
2019-05-15T17:48:54.209Z,3.52
2019-05-15T17:51:23.886Z,11.88
2019-05-15T17:54:00.164Z,6.07
2019-05-15T17:56:39.029Z,8.40
2019-05-15T17:59:15.014Z,6.83
2019-05-15T18:01:52.015Z,7.60
2019-05-15T18:04:29.033Z,5.83
2019-05-15T18:07:05.304Z,6.27
2019-05-15T18:09:51.540Z,9.47
2019-05-15T18:12:19.502Z,4.60
2019-05-15T18:14:58.303Z,7.95
2019-05-15T18:17:34.782Z,4.95
2019-05-15T18:20:12.284Z,7.13
2019-05-15T18:22:48.593Z,6.87
2019-05-15T18:25:24.837Z,7.73
2019-05-15T18:28:01.177Z,7.33
2019-05-15T18:30:38.968Z,13.62
2019-05-15T18:33:15.265Z,4.33
2019-05-15T18:35:51.904Z,11.93
2019-05-15T18:38:28.685Z,6.13
2019-05-15T18:41:05.992Z,9.20
2019-05-15T18:43:42.474Z,4.50
2019-05-15T18:46:19.109Z,12.30
2019-05-15T18:48:55.398Z,9.63
2019-05-15T18:51:33.617Z,12.07
2019-05-15T18:54:09.992Z,15.93
2019-05-15T18:56:48.804Z,10.75
2019-05-15T18:59:24.673Z,9.30
2019-05-15T19:02:00.710Z,7.25
2019-05-15T19:04:38.339Z,12.70
2019-05-15T19:07:18.004Z,10.73
2019-05-15T19:09:54.202Z,8.98
2019-05-15T19:12:30.281Z,8.80
2019-05-15T19:15:09.233Z,9.55
2019-05-15T19:17:47.711Z,9.17
2019-05-15T19:20:24.332Z,7.90
2019-05-15T19:23:00.649Z,5.10
2019-05-15T19:25:36.916Z,3.15
2019-05-15T19:28:13.880Z,5.95
2019-05-15T19:30:51.459Z,7.60
2019-05-15T19:33:36.958Z,6.65
2019-05-15T19:36:07.726Z,7.60
2019-05-15T19:38:43.794Z,6.83
2019-05-15T19:41:19.716Z,5.20
2019-05-15T19:43:58.103Z,5.10
2019-05-15T19:46:34.293Z,7.92
2019-05-15T19:49:10.992Z,3.95
2019-05-15T19:51:48.679Z,3.25
2019-05-15T19:54:25.533Z,5.60
2019-05-15T19:57:02.272Z,4.90
2019-05-15T19:59:38.279Z,8.17
2019-05-15T20:02:15.070Z,6.67
2019-05-15T20:04:52.019Z,7.77
2019-05-15T20:07:28.668Z,7.10
2019-05-15T20:10:06.012Z,3.93
2019-05-15T20:12:42.378Z,9.80
2019-05-15T20:15:19.152Z,6.97
2019-05-15T20:17:55.721Z,7.43
2019-05-15T20:20:32.104Z,4.50
2019-05-15T20:23:08.496Z,7.67
2019-05-15T20:25:45.474Z,4.25
2019-05-15T20:28:22.441Z,4.97
2019-05-15T20:30:59.117Z,4.43
2019-05-15T20:33:37.885Z,3.40
2019-05-15T20:36:13.887Z,2.87
2019-05-15T20:38:49.847Z,2.90
2019-05-15T20:41:27.382Z,4.53
2019-05-15T20:44:04.184Z,3.73
2019-05-15T20:46:40.508Z,6.25
2019-05-15T20:49:17.994Z,3.63
2019-05-15T20:51:54.512Z,4.40
2019-05-15T20:54:30.452Z,5.05
2019-05-15T20:57:08.837Z,4.17
2019-05-15T20:59:44.910Z,3.67
2019-05-15T21:02:21.881Z,5.47
2019-05-15T21:05:00.660Z,3.30
2019-05-15T21:07:42.038Z,3.00
2019-05-15T21:10:15.636Z,4.25
2019-05-15T21:12:51.603Z,3.20
2019-05-15T21:15:29.100Z,2.83
2019-05-15T21:18:16.848Z,2.27
2019-05-15T21:20:44.482Z,2.73
2019-05-15T21:23:21.561Z,3.90
2019-05-15T21:25:59.054Z,3.70
2019-05-15T21:28:35.408Z,2.75
2019-05-15T21:31:11.478Z,2.20
2019-05-15T21:33:51.109Z,2.95
2019-05-15T21:36:28.227Z,3.40
2019-05-15T21:39:06.945Z,3.90
2019-05-15T21:41:43.158Z,4.03
2019-05-15T21:44:19.449Z,3.30
2019-05-15T21:47:38.644Z,3.42
2019-05-15T21:50:18.978Z,3.92
2019-05-15T21:52:54.771Z,3.75
2019-05-15T21:55:31.277Z,3.30
2019-05-15T21:58:08.748Z,3.08
2019-05-15T22:00:48.794Z,4.97
2019-05-15T22:03:27.950Z,2.42
2019-05-15T22:06:04.393Z,5.47
2019-05-15T22:08:40.926Z,3.93
2019-05-15T22:11:18.838Z,5.00
2019-05-15T22:13:55.458Z,6.83
2019-05-15T22:16:32.057Z,3.12
2019-05-15T22:19:10.556Z,3.77
2019-05-15T22:21:48.957Z,4.25
2019-05-15T22:24:25.601Z,3.17
2019-05-15T22:27:01.881Z,4.57
2019-05-15T22:29:38.131Z,3.07
2019-05-15T22:32:14.589Z,2.33
2019-05-15T22:35:05.716Z,4.17
2019-05-15T22:37:29.465Z,4.67
2019-05-15T22:40:08.847Z,1.98
2019-05-15T22:42:44.933Z,5.17
2019-05-15T22:45:21.037Z,3.50
2019-05-15T22:47:58.591Z,2.90
2019-05-15T22:50:34.848Z,3.87
2019-05-15T22:53:11.944Z,2.27
2019-05-15T22:55:48.829Z,3.43
2019-05-15T22:58:24.760Z,3.02
2019-05-15T23:01:01.187Z,2.20
2019-05-15T23:03:39.463Z,4.17
2019-05-15T23:06:17.818Z,3.80
2019-05-15T23:08:54.154Z,1.13
2019-05-15T23:11:30.215Z,1.92
2019-05-15T23:14:08.137Z,2.20
2019-05-15T23:16:45.423Z,6.17
2019-05-15T23:19:23.069Z,4.93
2019-05-15T23:21:59.778Z,4.80
2019-05-15T23:24:38.572Z,3.47
2019-05-15T23:27:14.286Z,2.40
2019-05-15T23:29:50.408Z,1.97
2019-05-15T23:32:28.746Z,2.67
2019-05-15T23:35:04.976Z,3.23
2019-05-15T23:37:41.743Z,2.03
2019-05-15T23:40:18.163Z,1.07
2019-05-15T23:42:54.406Z,3.10
2019-05-15T23:45:32.089Z,2.87
2019-05-15T23:48:08.901Z,2.55
2019-05-15T23:50:45.041Z,2.33
2019-05-15T23:53:23.045Z,3.50
2019-05-15T23:55:59.095Z,3.80
2019-05-15T23:58:35.012Z,2.30
